Time;durP1;ratioP1;P1;durP2;ratioP2;P2;SDS_P1;SDS_P2;PMS_P1;PMS_P2;Temp;Humidity;BMP_temperature;BMP_pressure;BME280_temperature;BME280_humidity;BME280_pressure;Samples;Min_cycle;Max_cycle;Signal;HPM_P1;HPM_P2
2022/07/12 00:01:57;;;;;;;3.00;2.30;;;14.50;99.90;;;;;;5042358;28;20061;-84
2022/07/12 00:04:23;;;;;;;2.78;2.40;;;14.40;99.90;;;;;;5057223;28;20039;-83
2022/07/12 00:06:49;;;;;;;2.70;2.38;;;14.40;99.90;;;;;;5042206;28;20042;-84
2022/07/12 00:09:15;;;;;;;2.60;2.40;;;14.40;99.90;;;;;;5056892;28;20047;-83
2022/07/12 00:11:41;;;;;;;3.03;2.15;;;14.30;99.90;;;;;;5058923;28;20143;-83
2022/07/12 00:14:08;;;;;;;2.55;2.05;;;14.20;99.90;;;;;;5059382;28;20036;-84
2022/07/12 00:16:34;;;;;;;1.75;1.65;;;14.20;99.90;;;;;;5083001;28;20043;-84
2022/07/12 00:18:59;;;;;;;1.33;1.23;;;14.10;99.90;;;;;;5062301;28;20086;-83
2022/07/12 00:21:25;;;;;;;1.10;0.80;;;14.10;99.90;;;;;;5068623;28;20039;-83
2022/07/12 00:23:51;;;;;;;0.65;0.65;;;14.00;99.90;;;;;;5069825;28;20484;-83
2022/07/12 00:26:17;;;;;;;0.90;0.90;;;14.00;99.90;;;;;;5073456;28;20573;-83
2022/07/12 00:28:43;;;;;;;1.80;1.50;;;13.90;99.90;;;;;;5054138;28;20044;-83
2022/07/12 00:31:09;;;;;;;2.28;1.38;;;13.80;99.90;;;;;;5039998;28;20040;-84
2022/07/12 00:33:35;;;;;;;1.30;1.17;;;13.70;99.90;;;;;;5078338;28;20027;-84
2022/07/12 00:36:01;;;;;;;1.63;1.48;;;13.70;99.90;;;;;;5102959;28;20500;-83
2022/07/12 00:38:27;;;;;;;1.58;1.45;;;13.60;99.90;;;;;;5062426;28;20082;-83
2022/07/12 00:40:53;;;;;;;2.03;1.67;;;13.60;99.90;;;;;;5088654;28;20060;-83
2022/07/12 00:43:18;;;;;;;1.90;1.55;;;13.50;99.90;;;;;;5094847;28;20049;-84
2022/07/12 00:45:44;;;;;;;2.38;1.70;;;13.50;99.90;;;;;;5078034;28;20039;-83
2022/07/12 00:48:10;;;;;;;2.58;1.90;;;13.40;99.90;;;;;;5092730;28;20040;-84
2022/07/12 00:50:36;;;;;;;2.78;1.85;;;13.40;99.90;;;;;;5076970;28;20040;-84
2022/07/12 00:53:03;;;;;;;2.35;2.08;;;13.40;99.90;;;;;;5097579;28;20516;-84
2022/07/12 00:55:29;;;;;;;1.98;1.77;;;13.40;99.90;;;;;;5064393;28;20075;-84
2022/07/12 00:57:54;;;;;;;2.50;2.15;;;13.30;99.90;;;;;;5084273;28;20086;-84
2022/07/12 01:00:26;;;;;;;2.38;2.00;;;13.30;99.90;;;;;;5084064;28;20039;-83
2022/07/12 01:02:54;;;;;;;2.80;2.33;;;13.30;99.90;;;;;;5082816;28;20043;-83
2022/07/12 01:05:20;;;;;;;2.10;1.90;;;13.20;99.90;;;;;;5088279;28;20058;-83
2022/07/12 01:07:50;;;;;;;3.35;2.35;;;13.30;99.90;;;;;;5077553;28;20035;-84
2022/07/12 01:10:16;;;;;;;3.15;2.30;;;13.30;99.90;;;;;;5094495;28;20046;-83
2022/07/12 01:12:42;;;;;;;2.72;2.20;;;13.20;99.90;;;;;;5066750;28;20063;-83
2022/07/12 01:15:09;;;;;;;3.67;2.80;;;13.20;99.90;;;;;;5072091;28;20042;-83
2022/07/12 01:17:35;;;;;;;3.25;2.40;;;13.20;99.90;;;;;;5092137;28;20559;-83
2022/07/12 01:20:04;;;;;;;3.55;2.45;;;13.20;99.90;;;;;;5059392;28;20412;-83
2022/07/12 01:22:32;;;;;;;2.30;2.10;;;13.10;99.90;;;;;;5063461;28;20504;-83
2022/07/12 01:24:59;;;;;;;2.95;2.17;;;13.20;99.90;;;;;;5074612;28;20493;-84
2022/07/12 01:27:25;;;;;;;2.55;1.80;;;13.10;99.90;;;;;;5086850;28;20104;-83
2022/07/12 01:29:51;;;;;;;2.67;2.08;;;13.10;99.90;;;;;;5057843;28;20079;-83
2022/07/12 01:32:26;;;;;;;2.42;2.03;;;13.10;99.90;;;;;;5061583;28;20051;-83
2022/07/12 01:35:04;;;;;;;2.10;1.85;;;13.10;99.90;;;;;;5090159;28;20494;-83
2022/07/12 01:37:35;;;;;;;2.80;2.10;;;13.00;99.90;;;;;;5068806;28;20032;-82
2022/07/12 01:40:06;;;;;;;2.92;2.38;;;13.00;99.90;;;;;;5094288;28;20044;-82
2022/07/12 01:42:35;;;;;;;3.67;2.13;;;13.00;99.90;;;;;;5068425;28;20129;-82
2022/07/12 01:45:01;;;;;;;2.47;2.00;;;13.00;99.90;;;;;;5072793;28;20067;-83
2022/07/12 01:47:31;;;;;;;2.05;1.85;;;13.00;99.90;;;;;;5072997;28;20121;-82
2022/07/12 01:49:57;;;;;;;2.53;2.05;;;12.90;99.90;;;;;;5075444;28;20040;-83
2022/07/12 01:52:23;;;;;;;2.63;2.00;;;12.90;99.90;;;;;;5063505;28;20036;-82
2022/07/12 01:54:49;;;;;;;2.00;1.80;;;12.80;99.90;;;;;;5091854;28;20032;-82
2022/07/12 01:57:15;;;;;;;3.65;2.20;;;12.80;99.90;;;;;;5090735;28;20036;-82
2022/07/12 01:59:42;;;;;;;3.00;2.30;;;12.70;99.90;;;;;;5072292;28;20039;-82
2022/07/12 02:02:08;;;;;;;2.65;2.10;;;12.70;99.90;;;;;;5082907;28;20063;-82
2022/07/12 02:04:35;;;;;;;2.10;1.88;;;12.80;99.90;;;;;;5074274;28;20557;-82
2022/07/12 02:07:00;;;;;;;5.05;2.40;;;12.70;99.90;;;;;;5061333;28;20069;-82
2022/07/12 02:09:27;;;;;;;2.35;2.03;;;12.70;99.90;;;;;;5077003;28;20079;-82
2022/07/12 02:11:54;;;;;;;3.08;2.22;;;12.70;99.90;;;;;;5066950;28;20131;-82
2022/07/12 02:14:21;;;;;;;2.28;2.00;;;12.70;99.90;;;;;;5071767;28;20039;-82
2022/07/12 02:16:47;;;;;;;2.88;1.80;;;12.60;99.90;;;;;;5071335;28;20042;-82
2022/07/12 02:19:13;;;;;;;2.15;1.88;;;12.60;99.90;;;;;;5051152;28;20032;-82
2022/07/12 02:21:39;;;;;;;2.08;1.88;;;12.60;99.90;;;;;;5081844;28;20044;-82
2022/07/12 02:24:06;;;;;;;2.22;2.00;;;12.60;99.90;;;;;;5072458;28;20401;-82
2022/07/12 02:26:35;;;;;;;2.08;1.85;;;12.60;99.90;;;;;;5095704;28;20481;-82
2022/07/12 02:29:06;;;;;;;2.17;1.70;;;12.50;99.90;;;;;;5070582;28;20047;-82
2022/07/12 02:31:32;;;;;;;3.63;2.20;;;12.50;99.90;;;;;;5081399;28;20068;-80
2022/07/12 02:33:58;;;;;;;2.40;2.13;;;12.50;99.90;;;;;;5085262;28;20042;-81
2022/07/12 02:36:24;;;;;;;2.83;2.10;;;12.50;99.90;;;;;;5050885;28;21529;-80
2022/07/12 02:38:50;;;;;;;2.45;1.98;;;12.40;99.90;;;;;;5061244;28;20055;-80
2022/07/12 02:41:16;;;;;;;3.17;2.22;;;12.40;99.90;;;;;;5087401;27;20485;-81
2022/07/12 02:43:42;;;;;;;2.67;2.38;;;12.40;99.90;;;;;;5096907;28;20042;-81
2022/07/12 02:46:12;;;;;;;2.35;2.15;;;12.40;99.90;;;;;;5076025;28;20032;-80
2022/07/12 02:48:38;;;;;;;2.15;1.75;;;12.30;99.90;;;;;;5090003;28;20046;-80
2022/07/12 02:51:06;;;;;;;4.03;1.90;;;12.30;99.90;;;;;;5077005;28;20048;-82
2022/07/12 02:53:33;;;;;;;2.65;1.63;;;12.20;99.90;;;;;;5097701;28;20472;-81
2022/07/12 02:55:59;;;;;;;3.60;1.70;;;12.20;99.90;;;;;;5057837;28;20070;-81
2022/07/12 02:58:24;;;;;;;1.60;1.50;;;12.20;99.90;;;;;;5065986;28;20437;-82
2022/07/12 03:00:50;;;;;;;2.38;1.42;;;12.10;99.90;;;;;;5078174;28;20050;-82
2022/07/12 03:03:16;;;;;;;2.55;2.35;;;12.10;99.90;;;;;;5103005;28;20512;-81
2022/07/12 03:05:42;;;;;;;1.75;1.60;;;12.10;99.90;;;;;;5070564;28;20502;-82
2022/07/12 03:08:09;;;;;;;2.10;1.90;;;12.10;99.90;;;;;;5058440;28;20036;-81
2022/07/12 03:10:35;;;;;;;2.50;2.03;;;12.00;99.90;;;;;;5060262;28;20046;-81
2022/07/12 03:13:02;;;;;;;2.35;2.15;;;12.00;99.90;;;;;;5097846;28;20035;-81
2022/07/12 03:15:29;;;;;;;4.15;2.00;;;12.00;99.90;;;;;;5093145;28;20453;-80
2022/07/12 03:17:55;;;;;;;2.30;2.10;;;11.90;99.90;;;;;;5098770;28;20046;-80
2022/07/12 03:20:21;;;;;;;2.08;1.88;;;11.90;99.90;;;;;;5085256;28;20039;-81
2022/07/12 03:22:48;;;;;;;2.88;2.25;;;11.90;99.90;;;;;;5071968;28;20042;-80
2022/07/12 03:25:15;;;;;;;2.47;2.10;;;11.90;99.90;;;;;;5074291;28;20040;-80
2022/07/12 03:27:41;;;;;;;2.95;2.53;;;11.90;99.90;;;;;;5056252;28;20120;-81
2022/07/12 03:30:08;;;;;;;2.50;2.28;;;11.90;99.90;;;;;;5070647;28;20064;-81
2022/07/12 03:32:34;;;;;;;3.78;2.03;;;11.90;99.90;;;;;;5038122;28;20042;-81
2022/07/12 03:35:01;;;;;;;3.97;2.22;;;11.90;99.90;;;;;;5088508;28;20044;-81
2022/07/12 03:37:27;;;;;;;4.30;2.58;;;11.90;99.90;;;;;;5079587;28;20113;-81
2022/07/12 03:39:53;;;;;;;2.78;2.45;;;11.90;99.90;;;;;;5053074;28;20036;-80
2022/07/12 03:42:19;;;;;;;2.85;2.55;;;11.90;99.90;;;;;;5068545;28;20043;-80
2022/07/12 03:44:45;;;;;;;3.70;2.58;;;11.90;99.90;;;;;;5065355;28;20040;-80
2022/07/12 03:47:11;;;;;;;2.38;2.17;;;11.80;99.90;;;;;;5071798;28;20085;-81
2022/07/12 03:49:37;;;;;;;2.70;2.47;;;11.80;99.90;;;;;;5063121;28;20076;-81
2022/07/12 03:52:03;;;;;;;2.63;2.35;;;11.80;99.90;;;;;;5064494;28;20068;-80
2022/07/12 03:54:29;;;;;;;6.95;2.90;;;11.80;99.90;;;;;;5058469;28;20041;-80
2022/07/12 03:59:43;;;;;;;3.10;2.53;;;11.80;99.90;;;;;;5072995;28;20036;-80
2022/07/12 04:02:09;;;;;;;2.88;2.60;;;11.80;99.90;;;;;;5055743;28;20036;-80
2022/07/12 04:04:35;;;;;;;2.47;2.28;;;11.80;99.90;;;;;;5084117;28;20040;-80
2022/07/12 04:07:01;;;;;;;3.40;3.08;;;11.80;99.90;;;;;;5071250;28;20039;-80
2022/07/12 04:09:27;;;;;;;2.90;2.60;;;11.80;99.90;;;;;;5048918;28;20075;-79
2022/07/12 04:11:52;;;;;;;3.58;2.85;;;11.80;99.90;;;;;;5071536;28;20067;-80
2022/07/12 04:14:18;;;;;;;2.90;2.60;;;11.80;99.90;;;;;;5070514;28;20055;-80
2022/07/12 04:16:44;;;;;;;3.40;2.80;;;11.80;99.90;;;;;;5051797;28;20044;-80
2022/07/12 04:19:10;;;;;;;3.63;2.65;;;11.90;99.90;;;;;;5079896;28;20398;-80
2022/07/12 04:21:37;;;;;;;3.10;2.50;;;11.80;99.90;;;;;;5087958;28;20093;-80
2022/07/12 04:24:03;;;;;;;2.90;2.60;;;11.90;99.90;;;;;;5085555;28;20043;-80
2022/07/12 04:26:29;;;;;;;2.80;2.50;;;11.90;99.90;;;;;;5051950;28;20540;-79
2022/07/12 04:28:55;;;;;;;3.70;2.97;;;11.90;99.90;;;;;;5075732;28;20053;-79
2022/07/12 04:31:21;;;;;;;4.38;3.63;;;12.00;99.90;;;;;;5072332;28;20040;-79
2022/07/12 04:33:47;;;;;;;4.25;3.25;;;12.10;99.90;;;;;;5071133;28;20047;-79
2022/07/12 04:36:13;;;;;;;4.57;3.78;;;12.10;99.90;;;;;;5087959;28;20028;-79
2022/07/12 04:38:39;;;;;;;5.95;4.30;;;12.20;99.90;;;;;;5069968;28;20524;-79
2022/07/12 04:41:04;;;;;;;5.63;5.00;;;12.20;99.90;;;;;;5051923;28;20032;-79
2022/07/12 04:43:30;;;;;;;7.65;5.85;;;12.30;99.90;;;;;;5051800;28;20044;-79
2022/07/12 04:45:56;;;;;;;8.25;6.65;;;12.40;99.90;;;;;;5069528;28;20109;-80
2022/07/12 04:48:21;;;;;;;9.43;6.47;;;12.50;99.90;;;;;;5066970;28;20109;-79
2022/07/12 04:50:47;;;;;;;10.40;7.03;;;12.50;99.90;;;;;;5054077;28;20094;-79
2022/07/12 04:53:13;;;;;;;11.68;7.68;;;12.60;99.90;;;;;;5069465;28;20028;-80
2022/07/12 04:55:39;;;;;;;11.70;7.75;;;12.80;99.90;;;;;;5083607;28;20035;-80
2022/07/12 04:58:05;;;;;;;13.65;9.25;;;12.80;99.90;;;;;;5060690;28;20036;-80
2022/07/12 05:00:30;;;;;;;13.77;9.02;;;12.90;99.90;;;;;;5064043;28;20067;-80
2022/07/12 05:02:56;;;;;;;13.68;8.93;;;12.90;99.90;;;;;;5072633;28;20398;-80
2022/07/12 05:05:22;;;;;;;13.80;8.93;;;13.00;99.90;;;;;;5052555;28;20045;-80
2022/07/12 05:07:48;;;;;;;16.08;10.80;;;13.10;99.90;;;;;;5077770;28;20044;-80
2022/07/12 05:10:13;;;;;;;13.82;9.13;;;13.20;99.90;;;;;;5059483;28;20040;-80
2022/07/12 05:12:39;;;;;;;15.07;10.93;;;13.20;99.90;;;;;;5051434;28;20086;-80
2022/07/12 05:15:06;;;;;;;16.58;10.68;;;13.30;99.90;;;;;;5076072;28;20064;-79
2022/07/12 05:17:32;;;;;;;14.60;10.10;;;13.40;99.90;;;;;;5051446;28;20107;-80
2022/07/12 05:19:58;;;;;;;14.95;10.40;;;13.50;99.90;;;;;;5063615;28;20915;-80
2022/07/12 05:22:24;;;;;;;16.50;10.00;;;13.60;99.90;;;;;;5088293;28;20062;-80
2022/07/12 05:24:49;;;;;;;14.52;10.18;;;13.60;99.90;;;;;;5038708;28;20028;-81
2022/07/12 05:27:15;;;;;;;13.32;10.00;;;13.70;99.90;;;;;;5072690;28;20043;-80
2022/07/12 05:29:41;;;;;;;16.40;10.85;;;13.80;99.90;;;;;;5053901;28;20056;-80
2022/07/12 05:32:07;;;;;;;13.65;10.30;;;13.90;99.90;;;;;;5089522;28;20071;-80
2022/07/12 05:34:33;;;;;;;13.80;10.25;;;14.00;99.90;;;;;;5091163;28;20032;-80
2022/07/12 05:36:59;;;;;;;13.13;9.23;;;14.00;99.90;;;;;;5074419;28;20509;-80
2022/07/12 05:39:25;;;;;;;14.20;10.18;;;14.10;99.90;;;;;;5089596;28;20043;-80
2022/07/12 05:41:51;;;;;;;13.07;9.40;;;14.20;99.90;;;;;;5071929;28;20036;-80
2022/07/12 05:44:18;;;;;;;13.60;9.88;;;14.30;99.90;;;;;;5072423;28;20421;-80
2022/07/12 05:46:47;;;;;;;12.52;9.45;;;14.30;99.90;;;;;;5073816;28;20040;-80
2022/07/12 05:49:13;;;;;;;14.05;9.88;;;14.30;99.90;;;;;;5056653;28;20125;-80
2022/07/12 05:54:22;;;;;;;13.50;10.18;;;14.40;99.90;;;;;;5074581;28;20468;-80
2022/07/12 05:56:50;;;;;;;12.65;9.80;;;14.50;99.90;;;;;;5056280;28;20060;-81
2022/07/12 05:59:20;;;;;;;14.13;10.10;;;14.50;99.90;;;;;;5066993;28;20139;-80
2022/07/12 06:01:45;;;;;;;10.65;8.50;;;14.60;99.90;;;;;;5073661;28;20458;-81
2022/07/12 06:04:11;;;;;;;13.23;9.38;;;14.60;99.90;;;;;;5060011;28;20040;-80
2022/07/12 06:06:37;;;;;;;11.35;9.70;;;14.70;99.90;;;;;;5073894;28;20491;-81
2022/07/12 06:09:03;;;;;;;11.85;9.15;;;14.80;99.90;;;;;;5056031;28;20039;-81
2022/07/12 06:11:29;;;;;;;12.57;8.63;;;14.90;99.90;;;;;;5073131;28;20051;-80
2022/07/12 06:13:55;;;;;;;12.63;9.68;;;15.00;99.90;;;;;;5072976;28;20032;-80
2022/07/12 06:16:21;;;;;;;13.20;10.65;;;15.10;99.90;;;;;;5055908;28;20040;-81
2022/07/12 06:18:47;;;;;;;13.27;9.65;;;15.20;99.90;;;;;;5046523;28;20385;-81
2022/07/12 06:21:12;;;;;;;13.48;10.48;;;15.30;99.90;;;;;;5050236;28;20032;-81
2022/07/12 06:23:38;;;;;;;10.68;8.52;;;15.50;99.90;;;;;;5057015;28;20473;-81
2022/07/12 06:26:04;;;;;;;10.07;8.65;;;15.60;99.90;;;;;;5066298;28;20139;-81
2022/07/12 06:28:29;;;;;;;11.93;9.82;;;15.70;99.90;;;;;;5073850;28;20063;-81
2022/07/12 06:30:55;;;;;;;10.75;8.88;;;15.80;99.90;;;;;;5040469;28;20047;-81
2022/07/12 06:33:21;;;;;;;12.43;9.13;;;15.90;99.90;;;;;;5058482;28;20036;-81
2022/07/12 06:35:47;;;;;;;12.13;8.07;;;15.90;99.90;;;;;;5072997;28;20039;-81
2022/07/12 06:38:12;;;;;;;9.77;7.78;;;16.00;99.90;;;;;;5053383;28;20450;-81
2022/07/12 06:40:38;;;;;;;9.70;7.47;;;16.20;99.90;;;;;;5052365;28;20036;-81
2022/07/12 06:43:11;;;;;;;9.00;7.35;;;16.30;99.90;;;;;;5058289;28;20047;-81
2022/07/12 06:45:37;;;;;;;12.20;8.45;;;16.40;99.90;;;;;;5056461;28;20493;-81
2022/07/12 06:48:04;;;;;;;11.43;9.20;;;16.50;99.90;;;;;;5088716;28;20036;-80
2022/07/12 06:50:30;;;;;;;10.48;8.25;;;16.60;99.90;;;;;;5072843;28;20040;-80
2022/07/12 06:52:56;;;;;;;10.40;7.25;;;16.70;99.90;;;;;;5069526;28;20093;-81
2022/07/12 06:55:22;;;;;;;10.00;7.60;;;16.70;99.90;;;;;;5059241;28;20460;-81
2022/07/12 06:57:48;;;;;;;9.85;8.02;;;16.80;99.90;;;;;;5054942;28;20559;-81
2022/07/12 07:00:14;;;;;;;11.85;8.00;;;16.90;99.90;;;;;;5042801;28;20040;-81
2022/07/12 07:02:40;;;;;;;10.48;8.68;;;16.90;99.90;;;;;;5068264;28;20489;-81
2022/07/12 07:05:07;;;;;;;9.35;8.07;;;17.00;99.90;;;;;;5052088;28;20516;-81
2022/07/12 07:07:33;;;;;;;11.13;8.43;;;17.10;99.90;;;;;;5070766;28;20032;-81
2022/07/12 07:09:59;;;;;;;9.40;8.05;;;17.10;99.90;;;;;;5072655;28;20036;-81
2022/07/12 07:12:25;;;;;;;10.57;7.82;;;17.20;99.90;;;;;;5052947;28;20040;-81
2022/07/12 07:14:51;;;;;;;9.95;8.32;;;17.30;99.90;;;;;;5064028;28;20383;-81
2022/07/12 07:17:19;;;;;;;10.75;7.85;;;17.40;99.90;;;;;;5070626;28;20043;-81
2022/07/12 07:19:45;;;;;;;10.88;8.30;;;17.50;99.90;;;;;;5071383;28;20048;-81
2022/07/12 07:22:14;;;;;;;8.68;7.78;;;17.60;99.90;;;;;;5076281;28;20119;-80
2022/07/12 07:24:40;;;;;;;7.53;6.72;;;17.60;99.90;;;;;;5056114;28;20464;-81
2022/07/12 07:27:07;;;;;;;10.10;6.65;;;17.80;99.90;;;;;;5087127;28;20037;-81
2022/07/12 07:32:18;;;;;;;6.15;5.47;;;17.90;99.90;;;;;;5068889;28;20040;-80
2022/07/12 07:34:43;;;;;;;8.30;6.20;;;18.10;99.90;;;;;;5085417;28;20040;-80
2022/07/12 07:37:09;;;;;;;7.43;6.13;;;18.10;99.90;;;;;;5054930;28;20125;-80
2022/07/12 07:39:35;;;;;;;6.85;6.05;;;18.20;99.90;;;;;;5072040;28;20051;-81
2022/07/12 07:42:01;;;;;;;9.40;7.30;;;18.30;99.90;;;;;;5053839;28;20126;-80
2022/07/12 07:44:27;;;;;;;9.80;6.55;;;18.40;99.90;;;;;;5088634;28;20051;-80
2022/07/12 07:46:53;;;;;;;7.38;6.55;;;18.40;99.90;;;;;;5071760;28;20551;-80
2022/07/12 07:49:19;;;;;;;8.60;6.63;;;18.50;99.90;;;;;;5069084;28;20040;-80
2022/07/12 07:51:44;;;;;;;9.15;7.35;;;18.70;99.90;;;;;;5060940;28;20413;-81
2022/07/12 07:54:10;;;;;;;9.73;6.57;;;18.80;99.90;;;;;;5039632;28;20537;-80
2022/07/12 07:56:36;;;;;;;7.72;6.65;;;19.00;99.90;;;;;;5088311;28;20036;-80
2022/07/12 07:59:02;;;;;;;8.25;6.25;;;19.10;99.90;;;;;;5088249;28;20412;-80
2022/07/12 08:01:44;;;;;;;7.85;6.32;;;19.30;99.90;;;;;;5097522;28;20079;-80
2022/07/12 08:04:14;;;;;;;7.38;6.68;;;19.50;99.90;;;;;;5084747;28;20075;-80
2022/07/12 08:06:41;;;;;;;7.95;6.20;;;19.70;99.90;;;;;;5054903;28;20128;-81
2022/07/12 08:09:07;;;;;;;5.78;5.03;;;19.80;99.90;;;;;;5086793;28;20489;-81
2022/07/12 08:11:33;;;;;;;6.63;5.47;;;20.00;99.90;;;;;;5069891;28;20052;-80
2022/07/12 08:13:59;;;;;;;9.82;4.93;;;20.10;99.90;;;;;;5087906;28;20114;-80
2022/07/12 08:16:25;;;;;;;10.90;5.20;;;20.20;99.90;;;;;;5038542;28;20147;-80
2022/07/12 08:18:51;;;;;;;4.30;3.75;;;20.40;99.90;;;;;;5060184;28;20083;-80
2022/07/12 08:21:17;;;;;;;5.10;4.05;;;20.60;99.90;;;;;;5077902;28;20123;-81
2022/07/12 08:23:43;;;;;;;4.82;3.75;;;20.60;99.90;;;;;;5040749;28;20614;-80
2022/07/12 08:26:09;;;;;;;4.75;3.97;;;20.70;99.90;;;;;;5047155;28;20075;-80
2022/07/12 08:28:34;;;;;;;4.95;3.97;;;20.90;99.90;;;;;;5067400;28;20061;-81
2022/07/12 08:31:00;;;;;;;4.53;4.10;;;21.00;99.90;;;;;;5071560;28;20044;-80
2022/07/12 08:33:26;;;;;;;5.75;3.50;;;21.10;99.90;;;;;;5065065;28;20089;-80
2022/07/12 08:35:52;;;;;;;3.60;3.30;;;21.30;99.90;;;;;;5071053;28;20394;-80
2022/07/12 08:38:17;;;;;;;3.58;3.28;;;21.40;99.90;;;;;;5079624;28;20094;-80
2022/07/12 08:40:43;;;;;;;5.82;3.95;;;21.50;99.90;;;;;;5061844;28;20036;-80
2022/07/12 08:43:09;;;;;;;5.20;4.00;;;21.60;99.90;;;;;;5059944;28;20074;-80
2022/07/12 08:45:35;;;;;;;4.28;3.88;;;21.70;99.90;;;;;;5087753;28;20039;-80
2022/07/12 08:48:01;;;;;;;6.07;3.85;;;21.80;99.90;;;;;;5072352;28;20043;-80
2022/07/12 08:50:27;;;;;;;3.85;3.45;;;21.90;99.90;;;;;;5066248;28;20127;-80
2022/07/12 08:52:55;;;;;;;4.22;3.05;;;22.00;99.90;;;;;;5063009;28;20297;-80
2022/07/12 08:55:27;;;;;;;4.07;2.92;;;22.20;99.90;;;;;;5075007;28;20039;-80
2022/07/12 08:57:55;;;;;;;2.50;2.25;;;22.20;99.90;;;;;;5079676;28;20055;-80
2022/07/12 09:00:21;;;;;;;3.45;2.35;;;22.20;99.90;;;;;;5074826;28;20033;-80
2022/07/12 09:02:52;;;;;;;3.38;2.67;;;22.20;99.90;;;;;;5077091;28;20111;-80
2022/07/12 09:05:24;;;;;;;3.28;2.83;;;22.30;99.90;;;;;;5075087;28;20040;-80
2022/07/12 09:07:50;;;;;;;3.13;2.83;;;22.30;99.90;;;;;;5047630;28;20036;-80
2022/07/12 09:10:17;;;;;;;4.30;3.20;;;22.30;99.90;;;;;;5056110;28;20039;-80
2022/07/12 09:12:44;;;;;;;4.20;3.80;;;22.30;99.90;;;;;;5056784;28;20118;-78
2022/07/12 09:15:21;;;;;;;6.68;3.92;;;22.40;99.90;;;;;;5066046;28;20033;-81
2022/07/12 09:18:03;;;;;;;4.53;3.40;;;22.30;99.90;;;;;;5090847;28;20032;-80
2022/07/12 09:20:36;;;;;;;7.53;2.90;;;22.40;99.90;;;;;;5098193;28;20040;-80
2022/07/12 09:23:06;;;;;;;;;;;22.50;99.90;;;;;;5073636;28;20132;-81
2022/07/12 09:25:32;;;;;;;5.88;3.00;;;22.50;99.90;;;;;;5062276;28;19920;-80
2022/07/12 09:28:02;;;;;;;4.28;3.65;;;22.60;99.90;;;;;;5073700;28;20504;-80
2022/07/12 09:30:29;;;;;;;3.90;2.88;;;22.70;99.90;;;;;;5077556;28;20075;-80
2022/07/12 09:36:07;;;;;;;3.95;2.33;;;22.70;99.90;;;;;;5074842;28;20044;-80
2022/07/12 09:38:50;;;;;;;5.35;2.72;;;22.90;99.90;;;;;;5105675;28;20040;-80
2022/07/12 09:41:21;;;;;;;3.10;2.65;;;22.90;99.90;;;;;;5068475;28;20036;-79
2022/07/12 09:43:48;;;;;;;4.15;2.83;;;23.10;99.90;;;;;;5077066;28;20081;-80
2022/07/12 09:46:14;;;;;;;3.05;2.33;;;23.20;99.90;;;;;;5077280;28;20035;-80
2022/07/12 09:48:41;;;;;;;2.70;2.28;;;23.20;99.90;;;;;;5094447;28;20047;-80
2022/07/12 09:51:09;;;;;;;3.78;2.63;;;23.30;99.90;;;;;;5072143;28;20032;-81
2022/07/12 09:53:42;;;;;;;2.65;2.33;;;23.50;99.90;;;;;;5077745;28;20397;-80
2022/07/12 09:56:11;;;;;;;3.88;1.73;;;23.50;99.90;;;;;;5091848;28;20559;-81
2022/07/12 09:58:57;;;;;;;1.70;1.60;;;23.70;99.90;;;;;;5092981;28;20032;-80
2022/07/12 10:01:24;;;;;;;2.80;2.40;;;23.70;99.90;;;;;;5069096;28;20036;-80
2022/07/12 10:03:52;;;;;;;3.83;2.17;;;23.70;99.90;;;;;;5075361;28;20035;-80
2022/07/12 10:06:28;;;;;;;2.70;2.13;;;23.60;99.90;;;;;;5093122;28;20054;-80
2022/07/12 10:08:56;;;;;;;2.47;2.28;;;23.60;99.90;;;;;;5094284;28;20036;-81
2022/07/12 10:11:26;;;;;;;2.38;2.17;;;23.70;99.90;;;;;;5088263;28;20051;-81
2022/07/12 10:13:53;;;;;;;2.40;2.20;;;23.90;99.90;;;;;;5094045;28;20036;-82
2022/07/12 10:16:26;;;;;;;2.45;2.25;;;24.00;99.90;;;;;;5058344;28;20043;-82
2022/07/12 10:19:20;;;;;;;2.10;1.90;;;24.20;99.90;;;;;;5057412;28;20110;-82
2022/07/12 10:21:48;;;;;;;3.65;2.30;;;24.30;99.90;;;;;;5072558;28;20500;-82
2022/07/12 10:24:51;;;;;;;2.92;2.28;;;24.40;99.90;;;;;;5070091;28;20412;-82
2022/07/12 10:27:17;;;;;;;3.40;2.40;;;24.50;99.90;;;;;;5063152;28;20056;-82
2022/07/12 10:29:44;;;;;;;2.15;1.90;;;24.50;99.90;;;;;;5079733;28;20062;-81
2022/07/12 10:32:24;;;;;;;2.50;1.98;;;24.60;99.90;;;;;;5057452;28;20040;-82
2022/07/12 10:35:05;;;;;;;1.92;1.77;;;24.70;99.90;;;;;;5057330;28;20036;-83
2022/07/12 10:37:32;;;;;;;2.75;1.90;;;24.80;99.90;;;;;;5080701;28;20044;-82
2022/07/12 10:40:10;;;;;;;2.28;1.58;;;25.00;99.90;;;;;;5079338;28;20504;-81
2022/07/12 10:42:36;;;;;;;3.67;1.80;;;25.20;99.90;;;;;;5080802;28;20039;-82
2022/07/12 10:45:15;;;;;;;3.30;2.05;;;25.40;99.90;;;;;;5063717;28;20119;-82
2022/07/12 10:47:58;;;;;;;2.25;1.90;;;25.50;99.90;;;;;;5073832;28;20105;-82
2022/07/12 10:50:45;;;;;;;1.77;1.50;;;25.50;99.90;;;;;;5058921;28;20127;-82
2022/07/12 10:53:22;;;;;;;1.30;1.20;;;25.40;99.90;;;;;;5066898;28;20032;-82
2022/07/12 10:56:17;;;;;;;1.17;0.98;;;25.20;99.90;;;;;;5056555;28;20036;-82
2022/07/12 10:58:55;;;;;;;1.77;1.33;;;25.10;99.90;;;;;;5057032;28;20040;-82
2022/07/12 11:01:25;;;;;;;1.05;1.00;;;25.10;99.90;;;;;;5056778;28;20252;-82
2022/07/12 11:03:57;;;;;;;2.53;1.45;;;25.10;99.90;;;;;;5072818;28;20051;-82
2022/07/12 11:06:24;;;;;;;1.20;1.10;;;25.20;99.90;;;;;;5090499;28;20061;-83
2022/07/12 11:08:52;;;;;;;1.75;1.00;;;25.40;99.90;;;;;;5039515;28;20039;-83
2022/07/12 11:11:19;;;;;;;1.88;1.23;;;25.50;99.90;;;;;;5056195;28;20051;-81
2022/07/12 11:13:45;;;;;;;0.85;0.85;;;25.80;99.90;;;;;;5072602;28;20040;-82
2022/07/12 11:16:11;;;;;;;1.33;0.88;;;25.90;99.90;;;;;;5055970;28;20038;-82
2022/07/12 11:18:37;;;;;;;1.27;0.98;;;26.00;99.90;;;;;;5066231;28;20122;-82
2022/07/12 11:21:04;;;;;;;1.48;1.00;;;26.20;99.90;;;;;;5059257;28;20088;-82
2022/07/12 11:23:31;;;;;;;1.83;1.17;;;26.20;99.90;;;;;;5058387;28;20073;-83
2022/07/12 11:25:59;;;;;;;1.30;1.20;;;26.20;99.90;;;;;;5082315;28;20071;-82
2022/07/12 11:28:25;;;;;;;3.22;1.50;;;26.10;99.40;;;;;;5078485;28;20063;-81
2022/07/12 11:31:01;;;;;;;1.65;1.10;;;26.10;99.40;;;;;;5075998;28;20122;-81
2022/07/12 11:33:32;;;;;;;1.38;1.10;;;26.30;99.90;;;;;;5091371;28;20058;-81
2022/07/12 11:35:58;;;;;;;1.20;1.10;;;26.40;99.10;;;;;;5063751;28;20492;-81
2022/07/12 11:38:28;;;;;;;0.90;0.90;;;26.30;99.10;;;;;;5078287;28;20044;-82
2022/07/12 11:40:59;;;;;;;2.58;1.10;;;26.40;99.00;;;;;;5072591;28;20035;-82
2022/07/12 11:43:26;;;;;;;1.65;1.30;;;26.40;99.40;;;;;;5072608;28;20052;-82
2022/07/12 11:45:53;;;;;;;4.40;1.50;;;26.40;99.00;;;;;;5069379;28;20495;-82
2022/07/12 11:48:19;;;;;;;1.30;1.20;;;26.50;98.90;;;;;;5075460;28;20569;-85
2022/07/12 11:50:46;;;;;;;1.23;1.17;;;26.60;98.70;;;;;;5075247;28;20040;-81
2022/07/12 11:53:20;;;;;;;1.40;1.30;;;26.50;98.50;;;;;;5091908;28;20122;-82
2022/07/12 11:55:48;;;;;;;2.70;1.23;;;26.50;98.20;;;;;;5092167;28;20123;-81
2022/07/12 11:58:15;;;;;;;2.13;0.90;;;26.40;98.00;;;;;;5090574;28;20096;-83
2022/07/12 12:00:42;;;;;;;1.17;1.10;;;26.30;98.50;;;;;;5090014;28;20534;-85
2022/07/12 12:03:08;;;;;;;0.70;0.70;;;26.10;98.10;;;;;;5071403;28;20480;-85
2022/07/12 12:05:35;;;;;;;3.38;1.40;;;26.10;98.40;;;;;;5059204;28;20031;-85
2022/07/12 12:08:01;;;;;;;2.28;2.00;;;26.10;98.80;;;;;;5078689;27;20027;-85
2022/07/12 12:10:28;;;;;;;2.00;1.80;;;26.00;98.50;;;;;;5066488;28;20039;-86
2022/07/12 12:12:56;;;;;;;1.88;1.63;;;26.10;98.50;;;;;;5057600;28;20067;-85
2022/07/12 12:15:27;;;;;;;3.20;1.92;;;26.00;98.50;;;;;;5075226;28;20043;-85
2022/07/12 12:17:54;;;;;;;2.97;1.90;;;26.00;98.20;;;;;;5077707;28;20027;-85
2022/07/12 12:20:22;;;;;;;2.05;1.75;;;26.10;98.40;;;;;;5079242;28;20068;-85
2022/07/12 12:23:02;;;;;;;1.65;1.55;;;26.20;98.20;;;;;;5043429;28;20054;-86
2022/07/12 12:25:29;;;;;;;2.42;1.83;;;26.30;98.50;;;;;;5073799;28;20048;-87
2022/07/12 12:28:03;;;;;;;2.38;1.77;;;26.40;98.30;;;;;;5086141;28;20031;-86
2022/07/12 12:30:33;;;;;;;2.55;1.35;;;26.40;98.30;;;;;;5062621;28;20079;-86
2022/07/12 12:33:06;;;;;;;1.50;1.40;;;26.40;97.80;;;;;;5082603;28;20056;-85
2022/07/12 12:35:33;;;;;;;2.13;1.40;;;26.40;97.00;;;;;;5093224;28;20062;-86
2022/07/12 12:38:11;;;;;;;2.35;1.20;;;26.50;97.50;;;;;;5059055;28;20028;-86
2022/07/12 12:40:37;;;;;;;2.05;1.48;;;26.60;97.50;;;;;;5094154;28;20040;-85
2022/07/12 12:43:13;;;;;;;2.78;1.50;;;26.70;97.80;;;;;;5095948;28;20468;-86
2022/07/12 12:45:56;;;;;;;2.17;1.88;;;26.90;97.70;;;;;;5074987;28;20032;-85
2022/07/12 12:48:23;;;;;;;2.88;1.40;;;27.00;97.20;;;;;;5082769;28;20303;-85
2022/07/12 12:50:51;;;;;;;1.70;1.60;;;27.10;97.70;;;;;;5073952;28;20042;-85
2022/07/12 12:53:24;;;;;;;2.25;1.60;;;27.20;97.40;;;;;;5088082;27;20080;-85
2022/07/12 12:55:52;;;;;;;4.63;1.65;;;27.20;96.70;;;;;;5079104;28;20039;-85
2022/07/12 12:58:19;;;;;;;1.58;1.48;;;27.20;96.80;;;;;;5074117;28;20047;-85
2022/07/12 13:00:47;;;;;;;1.38;1.17;;;27.20;97.50;;;;;;5082840;28;20137;-85